createdAt,value
2018-11-13T00:00:09.306Z,0
2018-11-13T00:00:49.653Z,0
2018-11-13T00:01:30.026Z,0
2018-11-13T00:02:10.485Z,0
2018-11-13T00:02:50.941Z,0
2018-11-13T00:03:31.364Z,0
2018-11-13T00:04:11.766Z,0
2018-11-13T00:04:52.124Z,0
2018-11-13T00:05:32.643Z,0
2018-11-13T00:06:12.982Z,0
2018-11-13T00:06:53.624Z,0
2018-11-13T00:07:34.111Z,0
2018-11-13T00:08:14.456Z,0
2018-11-13T00:08:54.901Z,0
2018-11-13T00:09:35.127Z,0
2018-11-13T00:10:15.624Z,0
2018-11-13T00:10:56.261Z,0
2018-11-13T00:11:37.781Z,0
2018-11-13T00:12:18.368Z,0
2018-11-13T00:12:58.839Z,0
2018-11-13T00:13:39.167Z,0
2018-11-13T00:14:19.593Z,0
2018-11-13T00:15:00.054Z,0
2018-11-13T00:15:40.539Z,0
2018-11-13T00:16:21.190Z,0
2018-11-13T00:17:01.513Z,0
2018-11-13T00:17:41.758Z,0
2018-11-13T00:18:22.435Z,0
2018-11-13T00:19:03.019Z,0
2018-11-13T00:19:43.364Z,0
2018-11-13T00:20:24.756Z,0
2018-11-13T00:21:05.704Z,0
2018-11-13T00:21:46.381Z,0
2018-11-13T00:22:26.952Z,0
2018-11-13T00:23:07.356Z,0
2018-11-13T00:23:47.850Z,0
2018-11-13T00:24:30.567Z,0
2018-11-13T00:25:10.635Z,0
2018-11-13T00:25:51.041Z,0
2018-11-13T00:26:39.632Z,0
2018-11-13T00:27:20.161Z,0
2018-11-13T00:28:00.948Z,0
2018-11-13T00:28:42.579Z,0
2018-11-13T00:29:24.122Z,0
2018-11-13T00:30:10.412Z,0
2018-11-13T00:30:51.618Z,0
2018-11-13T00:31:36.915Z,0
2018-11-13T00:32:19.621Z,0
2018-11-13T00:34:58.754Z,0
2018-11-13T00:35:50.900Z,0
2018-11-13T00:36:46.993Z,0
2018-11-13T00:37:41.723Z,0
2018-11-13T00:38:46.830Z,0
2018-11-13T00:41:36.639Z,0
2018-11-13T00:42:16.722Z,0
2018-11-13T00:42:57.137Z,0
2018-11-13T00:43:37.516Z,0
2018-11-13T00:44:17.940Z,0
2018-11-13T00:44:58.331Z,0
2018-11-13T00:45:38.974Z,0
2018-11-13T00:46:19.217Z,0
2018-11-13T00:46:59.586Z,0
2018-11-13T00:47:39.985Z,0
2018-11-13T00:48:20.421Z,0
2018-11-13T00:49:01.243Z,0
2018-11-13T00:49:41.174Z,0
2018-11-13T00:50:21.569Z,0
2018-11-13T00:52:34.274Z,0
2018-11-13T00:53:14.666Z,0
2018-11-13T00:53:55.126Z,0
2018-11-13T00:54:35.535Z,0
2018-11-13T00:55:16.162Z,0
2018-11-13T00:55:56.846Z,0
2018-11-13T00:56:37.247Z,0
2018-11-13T00:57:17.728Z,0
2018-11-13T00:57:58.395Z,0
2018-11-13T00:58:38.776Z,0
2018-11-13T00:59:19.245Z,0
2018-11-13T00:59:59.537Z,0
2018-11-13T01:00:39.943Z,0
2018-11-13T01:01:20.344Z,0
2018-11-13T01:02:00.820Z,0
2018-11-13T01:02:41.170Z,0
2018-11-13T01:03:21.537Z,0
2018-11-13T01:04:01.968Z,0
2018-11-13T01:04:42.372Z,0
2018-11-13T01:05:22.900Z,0
2018-11-13T01:06:03.187Z,0
2018-11-13T01:06:43.616Z,0
2018-11-13T01:07:23.975Z,0
2018-11-13T01:08:04.403Z,0
2018-11-13T01:08:44.808Z,0
2018-11-13T01:09:25.251Z,0
2018-11-13T01:10:05.641Z,0
2018-11-13T01:10:46.033Z,0
2018-11-13T01:11:26.469Z,0
2018-11-13T01:12:06.852Z,0
2018-11-13T01:12:47.280Z,0
2018-11-13T01:13:27.828Z,0
2018-11-13T01:14:08.126Z,0
2018-11-13T01:14:48.533Z,0
2018-11-13T01:15:28.959Z,0
2018-11-13T01:16:09.366Z,0
2018-11-13T01:16:49.783Z,0
2018-11-13T01:17:30.260Z,0
2018-11-13T01:18:10.594Z,0
2018-11-13T01:18:51.005Z,0
2018-11-13T01:19:31.406Z,0
2018-11-13T01:20:11.840Z,0
2018-11-13T01:20:52.258Z,0
2018-11-13T01:21:32.679Z,0
2018-11-13T01:22:13.078Z,0
2018-11-13T01:22:53.495Z,0
2018-11-13T01:23:33.888Z,0
2018-11-13T01:24:14.310Z,0
2018-11-13T01:24:54.677Z,0
2018-11-13T01:25:35.061Z,0
2018-11-13T01:26:15.473Z,0
2018-11-13T01:30:11.319Z,0
2018-11-13T01:31:03.309Z,0
2018-11-13T01:31:55.608Z,0
2018-11-13T01:32:47.476Z,0
2018-11-13T01:33:39.657Z,0
2018-11-13T01:34:31.928Z,0
2018-11-13T01:35:24.433Z,0
2018-11-13T01:36:16.392Z,0
2018-11-13T01:37:09.321Z,0
2018-11-13T01:38:01.501Z,0
2018-11-13T01:38:53.954Z,0
2018-11-13T01:39:46.244Z,0
2018-11-13T01:40:38.337Z,0
2018-11-13T01:41:30.858Z,0
2018-11-13T01:42:23.025Z,0
2018-11-13T01:43:14.907Z,0
2018-11-13T01:44:07.351Z,0
2018-11-13T01:44:59.471Z,0
2018-11-13T01:45:52.110Z,0
2018-11-13T01:46:45.160Z,0
2018-11-13T01:47:37.574Z,0
2018-11-13T01:48:29.830Z,0
2018-11-13T01:49:22.543Z,0
2018-11-13T01:50:14.675Z,0
2018-11-13T01:51:08.022Z,0
2018-11-13T01:52:00.359Z,0
2018-11-13T01:52:52.221Z,0
2018-11-13T01:53:43.871Z,0
2018-11-13T01:54:35.950Z,0
2018-11-13T01:55:28.058Z,0
2018-11-13T01:56:20.277Z,0
2018-11-13T01:57:12.975Z,0
2018-11-13T01:58:04.736Z,0
2018-11-13T01:58:56.719Z,0
2018-11-13T01:59:48.735Z,0
2018-11-13T02:00:40.361Z,0
2018-11-13T02:01:20.348Z,0
2018-11-13T02:02:00.740Z,0
2018-11-13T02:02:41.225Z,0
2018-11-13T02:03:21.507Z,0
2018-11-13T02:04:02.019Z,0
2018-11-13T02:04:42.488Z,0
2018-11-13T02:05:22.840Z,0
2018-11-13T02:06:03.290Z,0
2018-11-13T02:06:43.727Z,0
2018-11-13T02:07:24.111Z,0
2018-11-13T02:08:04.577Z,0
2018-11-13T02:08:45.070Z,0
2018-11-13T02:09:25.383Z,0
2018-11-13T02:10:05.868Z,0
2018-11-13T02:10:46.308Z,0
2018-11-13T02:11:26.607Z,0
2018-11-13T02:12:07.678Z,0
2018-11-13T02:12:48.088Z,0
2018-11-13T02:13:28.493Z,0
2018-11-13T02:14:09.007Z,0
2018-11-13T02:14:49.844Z,0
2018-11-13T02:15:30.304Z,0
2018-11-13T02:16:10.630Z,0
2018-11-13T02:16:51.147Z,0
2018-11-13T02:17:31.523Z,0
2018-11-13T02:18:11.922Z,0
2018-11-13T02:18:52.332Z,0
2018-11-13T02:19:33.965Z,0
2018-11-13T02:20:14.693Z,0
2018-11-13T02:20:55.450Z,0
2018-11-13T02:21:35.890Z,0
2018-11-13T02:22:18.375Z,0
2018-11-13T02:23:00.105Z,0
2018-11-13T02:23:40.601Z,0
2018-11-13T02:24:21.697Z,0
2018-11-13T02:25:02.910Z,0
2018-11-13T02:25:43.290Z,0
2018-11-13T02:26:23.669Z,0
2018-11-13T02:27:04.176Z,0
2018-11-13T02:27:44.526Z,0
2018-11-13T02:28:24.954Z,0
2018-11-13T02:29:05.394Z,0
2018-11-13T02:29:45.765Z,0
2018-11-13T02:30:26.179Z,0
2018-11-13T02:31:06.548Z,0
2018-11-13T02:31:46.984Z,0
2018-11-13T02:32:27.418Z,0
2018-11-13T02:33:07.794Z,0
2018-11-13T02:33:48.272Z,0
2018-11-13T02:34:37.474Z,0
2018-11-13T02:35:37.842Z,0
2018-11-13T02:36:18.207Z,0
2018-11-13T02:36:58.667Z,0
2018-11-13T02:37:39.054Z,0
2018-11-13T02:38:19.567Z,0
2018-11-13T02:39:00.409Z,0
2018-11-13T02:39:40.739Z,0
2018-11-13T02:40:21.407Z,0
2018-11-13T02:41:01.777Z,0
2018-11-13T02:41:42.263Z,0
2018-11-13T02:42:22.584Z,0
2018-11-13T02:43:03.021Z,0
2018-11-13T02:43:43.411Z,0
2018-11-13T02:44:23.868Z,0
2018-11-13T02:45:04.270Z,0
2018-11-13T02:45:44.690Z,0
2018-11-13T02:46:25.104Z,0
2018-11-13T02:47:05.522Z,0
2018-11-13T02:47:45.929Z,0
2018-11-13T02:48:26.379Z,0
2018-11-13T02:49:06.682Z,0
2018-11-13T02:49:47.105Z,0
2018-11-13T02:50:27.544Z,0
2018-11-13T02:51:07.864Z,0
2018-11-13T02:51:48.201Z,0
2018-11-13T02:52:28.674Z,0
2018-11-13T02:53:09.051Z,0
2018-11-13T02:53:49.541Z,0
2018-11-13T02:54:29.911Z,0
2018-11-13T02:55:10.296Z,0
2018-11-13T02:55:50.657Z,0
2018-11-13T02:56:31.052Z,0
2018-11-13T02:57:11.478Z,0
2018-11-13T02:57:51.912Z,0
2018-11-13T02:58:32.227Z,0
2018-11-13T02:59:12.660Z,0
2018-11-13T02:59:53.129Z,0
2018-11-13T03:00:33.642Z,0
2018-11-13T03:01:14.516Z,0
2018-11-13T03:01:55.111Z,0
2018-11-13T03:02:35.863Z,0
2018-11-13T03:03:16.240Z,0
2018-11-13T03:03:56.697Z,0
2018-11-13T03:04:37.571Z,0
2018-11-13T03:05:18.973Z,0
2018-11-13T03:05:59.322Z,0
2018-11-13T03:06:39.534Z,0
2018-11-13T03:07:19.979Z,0
2018-11-13T03:08:00.294Z,0
2018-11-13T03:08:40.934Z,0
2018-11-13T03:09:21.470Z,0
2018-11-13T03:10:02.146Z,0
2018-11-13T03:10:42.382Z,0
2018-11-13T03:11:22.893Z,0
2018-11-13T03:12:03.413Z,0
2018-11-13T03:12:43.840Z,0
2018-11-13T03:13:24.321Z,0
2018-11-13T03:14:04.728Z,0
2018-11-13T03:14:45.153Z,0
2018-11-13T03:15:25.709Z,0
2018-11-13T03:16:06.071Z,0
2018-11-13T03:16:46.482Z,0
2018-11-13T03:17:27.465Z,0
2018-11-13T03:18:08.214Z,0
2018-11-13T03:18:49.265Z,0
2018-11-13T03:19:30.039Z,0
2018-11-13T03:20:10.217Z,0
2018-11-13T03:20:52.338Z,0
2018-11-13T03:21:34.818Z,0
2018-11-13T03:22:17.943Z,0
2018-11-13T03:22:59.121Z,0
2018-11-13T03:23:40.258Z,0
2018-11-13T03:24:20.957Z,0
2018-11-13T03:25:02.095Z,0
2018-11-13T03:25:42.780Z,0
2018-11-13T03:26:23.654Z,0
2018-11-13T03:27:04.680Z,0
2018-11-13T03:27:45.695Z,0
2018-11-13T03:28:25.835Z,0
2018-11-13T03:29:06.282Z,0
2018-11-13T03:29:46.605Z,0
2018-11-13T03:30:27.027Z,0
2018-11-13T03:31:08.324Z,0
2018-11-13T03:31:48.576Z,0
2018-11-13T03:32:28.819Z,0
2018-11-13T03:33:09.274Z,0
2018-11-13T03:33:49.742Z,0
2018-11-13T03:34:30.467Z,0
2018-11-13T03:35:10.905Z,0
2018-11-13T03:35:51.117Z,0
2018-11-13T03:36:31.628Z,0
2018-11-13T03:37:12.114Z,0
2018-11-13T03:37:52.442Z,0
2018-11-13T03:38:33.579Z,0
2018-11-13T03:39:13.712Z,0
2018-11-13T03:39:54.287Z,0
2018-11-13T03:40:34.602Z,0
2018-11-13T03:41:15.130Z,0
2018-11-13T03:41:55.580Z,0
2018-11-13T03:42:36.009Z,0
2018-11-13T03:43:16.405Z,0
2018-11-13T03:43:56.837Z,0
2018-11-13T03:44:37.195Z,0
2018-11-13T03:45:17.540Z,0
2018-11-13T03:45:58.006Z,0
2018-11-13T03:46:38.385Z,0
2018-11-13T03:47:18.846Z,0
2018-11-13T03:47:59.269Z,0
2018-11-13T03:48:39.597Z,0
2018-11-13T03:49:20.154Z,0
2018-11-13T03:50:00.459Z,0
2018-11-13T03:50:40.851Z,0
2018-11-13T03:51:21.445Z,0
2018-11-13T03:52:01.987Z,0
2018-11-13T03:52:42.331Z,0
2018-11-13T03:53:22.837Z,0
2018-11-13T03:54:03.283Z,0
2018-11-13T03:54:43.628Z,0
2018-11-13T03:55:24.319Z,0
2018-11-13T03:56:04.762Z,0
2018-11-13T03:56:45.352Z,0
2018-11-13T03:57:25.699Z,0
2018-11-13T03:58:06.191Z,0
2018-11-13T03:58:46.876Z,0
2018-11-13T03:59:27.219Z,0
2018-11-13T04:00:07.694Z,0
2018-11-13T04:00:47.962Z,0
2018-11-13T04:01:28.627Z,0
2018-11-13T04:02:08.859Z,0
2018-11-13T04:02:49.410Z,0
2018-11-13T04:03:29.701Z,0
2018-11-13T04:04:10.238Z,0
2018-11-13T04:04:50.594Z,0
2018-11-13T04:05:31.085Z,0
2018-11-13T04:06:12.148Z,0
2018-11-13T04:06:52.652Z,0
2018-11-13T04:07:33.095Z,0
2018-11-13T04:08:13.506Z,0
2018-11-13T04:08:53.883Z,0
2018-11-13T04:09:34.787Z,0
2018-11-13T04:10:15.198Z,0
2018-11-13T04:10:55.552Z,0
2018-11-13T04:11:36.091Z,0
2018-11-13T04:12:16.535Z,0
2018-11-13T04:12:56.934Z,0
2018-11-13T04:13:37.398Z,0
2018-11-13T04:14:17.985Z,0
2018-11-13T04:14:58.437Z,0
2018-11-13T04:15:38.821Z,0
2018-11-13T04:16:19.185Z,0
2018-11-13T04:16:59.572Z,0
2018-11-13T04:17:40.520Z,0
2018-11-13T04:18:21.347Z,0
2018-11-13T04:19:01.826Z,0
2018-11-13T04:19:42.189Z,0
2018-11-13T04:20:22.774Z,0
2018-11-13T04:21:03.480Z,0
2018-11-13T04:21:43.788Z,0
2018-11-13T04:22:24.208Z,0
2018-11-13T04:23:04.636Z,0
2018-11-13T04:23:45.013Z,0
2018-11-13T04:24:30.767Z,0
2018-11-13T04:25:11.078Z,0
2018-11-13T04:25:51.512Z,0
2018-11-13T04:26:32.929Z,0
2018-11-13T04:27:15.427Z,0
2018-11-13T05:10:52.098Z,0
2018-11-13T05:11:46.500Z,0
2018-11-13T05:12:39.955Z,0
2018-11-13T05:13:35.425Z,0
2018-11-13T05:14:28.309Z,0
2018-11-13T05:15:20.686Z,0
2018-11-13T05:16:12.773Z,0
2018-11-13T05:17:04.927Z,0
2018-11-13T05:17:57.468Z,0
2018-11-13T05:18:49.893Z,0
2018-11-13T05:19:45.318Z,0
2018-11-13T05:20:38.439Z,0
2018-11-13T05:21:35.447Z,0
2018-11-13T05:22:27.557Z,0
2018-11-13T05:23:20.623Z,0
2018-11-13T05:24:14.099Z,0
2018-11-13T05:25:06.087Z,0
2018-11-13T05:25:58.254Z,0
2018-11-13T05:26:51.894Z,0
2018-11-13T05:27:44.997Z,0
2018-11-13T05:28:37.423Z,0
2018-11-13T05:29:33.214Z,0
2018-11-13T05:30:25.890Z,0
2018-11-13T05:31:20.909Z,0
2018-11-13T05:32:15.250Z,0
2018-11-13T05:38:15.960Z,0
2018-11-13T05:39:08.464Z,0
2018-11-13T05:40:02.506Z,0
2018-11-13T05:40:56.517Z,0
2018-11-13T05:41:49.077Z,0
2018-11-13T05:45:02.753Z,0
2018-11-13T05:45:42.408Z,0
2018-11-13T05:46:22.880Z,0
2018-11-13T05:47:03.469Z,0
2018-11-13T05:47:44.015Z,0
2018-11-13T05:48:24.335Z,0
2018-11-13T05:49:04.710Z,0
2018-11-13T05:49:45.127Z,0
2018-11-13T05:50:25.531Z,0
2018-11-13T05:51:05.963Z,0
2018-11-13T05:51:47.509Z,0
2018-11-13T05:54:14.925Z,0
2018-11-13T05:57:04.633Z,0
2018-11-13T05:57:46.505Z,0
2018-11-13T05:58:26.626Z,0
2018-11-13T05:59:07.519Z,0
2018-11-13T05:59:48.012Z,0
2018-11-13T06:00:29.702Z,0
2018-11-13T06:01:10.401Z,0
2018-11-13T06:01:50.847Z,0
2018-11-13T06:02:31.597Z,0
2018-11-13T06:03:13.110Z,0
2018-11-13T06:03:54.478Z,0
2018-11-13T06:04:35.330Z,0
2018-11-13T06:05:16.201Z,0
2018-11-13T06:05:56.654Z,0
2018-11-13T06:06:36.995Z,0
2018-11-13T06:07:17.684Z,0
2018-11-13T06:07:58.266Z,0
2018-11-13T06:08:38.763Z,0
2018-11-13T06:09:19.886Z,0
2018-11-13T06:10:00.399Z,0
2018-11-13T06:10:40.838Z,0
2018-11-13T06:11:21.827Z,0
2018-11-13T06:12:02.033Z,0
2018-11-13T06:12:42.834Z,0
2018-11-13T06:13:23.185Z,0
2018-11-13T06:14:05.326Z,0
2018-11-13T06:14:46.841Z,0
2018-11-13T06:15:27.279Z,0
2018-11-13T06:16:09.002Z,0
2018-11-13T06:16:49.167Z,0
2018-11-13T06:17:29.865Z,0
2018-11-13T06:18:12.287Z,0
2018-11-13T06:18:52.898Z,0
2018-11-13T06:19:33.641Z,0
2018-11-13T06:20:13.975Z,0
2018-11-13T06:20:55.421Z,0
2018-11-13T06:21:37.004Z,0
2018-11-13T06:22:17.664Z,0
2018-11-13T06:22:59.372Z,0
2018-11-13T06:23:39.700Z,0
2018-11-13T06:24:20.416Z,0
2018-11-13T06:25:01.364Z,0
2018-11-13T06:25:42.533Z,0
2018-11-13T06:26:26.823Z,0
2018-11-13T06:27:09.887Z,0
2018-11-13T06:29:40.574Z,0
2018-11-13T06:30:21.011Z,0
2018-11-13T06:31:01.592Z,0
2018-11-13T06:31:42.143Z,0
2018-11-13T06:32:22.807Z,0
2018-11-13T06:33:04.090Z,0
2018-11-13T06:33:45.083Z,0
2018-11-13T06:34:24.938Z,0
2018-11-13T06:35:05.492Z,0
2018-11-13T06:35:45.900Z,0
2018-11-13T06:36:26.583Z,0
2018-11-13T06:37:07.044Z,0
2018-11-13T06:37:47.844Z,0
2018-11-13T06:38:28.656Z,0
2018-11-13T06:39:09.183Z,0
2018-11-13T06:39:49.561Z,0
2018-11-13T06:40:29.980Z,0
2018-11-13T06:41:10.445Z,0
2018-11-13T06:41:50.923Z,0
2018-11-13T06:42:31.468Z,0
2018-11-13T06:43:11.953Z,0
2018-11-13T06:47:51.232Z,0
2018-11-13T06:48:32.116Z,0
2018-11-13T06:49:14.886Z,0
2018-11-13T06:49:55.075Z,0
2018-11-13T06:50:35.599Z,0
2018-11-13T06:51:16.165Z,0
2018-11-13T06:51:56.962Z,0
2018-11-13T06:52:38.224Z,0
2018-11-13T06:55:08.337Z,0
2018-11-13T06:55:48.797Z,0
2018-11-13T06:56:33.740Z,0
2018-11-13T06:57:13.731Z,0
2018-11-13T06:57:54.549Z,0
2018-11-13T07:08:59.330Z,5
2018-11-13T07:09:39.543Z,5
2018-11-13T07:10:21.572Z,5
2018-11-13T07:11:02.068Z,5
2018-11-13T07:11:42.192Z,5
2018-11-13T07:12:23.023Z,5
2018-11-13T07:13:04.687Z,5
2018-11-13T07:13:46.028Z,5
2018-11-13T07:14:26.592Z,5
2018-11-13T07:15:07.304Z,5
2018-11-13T07:26:28.642Z,10
2018-11-13T07:27:22.304Z,10
2018-11-13T07:28:15.199Z,15
2018-11-13T07:29:08.852Z,15
2018-11-13T07:30:01.526Z,20
2018-11-13T07:30:54.277Z,20
2018-11-13T07:31:46.637Z,15
2018-11-13T07:32:41.320Z,20
2018-11-13T07:33:39.058Z,20
2018-11-13T07:34:31.207Z,30
2018-11-13T07:35:25.197Z,30
2018-11-13T07:36:20.574Z,25
2018-11-13T07:37:39.742Z,25
2018-11-13T07:40:58.806Z,25
2018-11-13T07:42:06.829Z,25
2018-11-13T07:53:43.847Z,30
2018-11-13T07:54:24.375Z,30
2018-11-13T07:55:03.955Z,35
2018-11-13T07:55:44.386Z,30
2018-11-13T07:56:25.312Z,30
2018-11-13T07:57:05.916Z,30
2018-11-13T07:57:46.398Z,35
2018-11-13T08:02:55.077Z,40
2018-11-13T08:03:35.642Z,40
2018-11-13T08:04:15.877Z,30
2018-11-13T08:04:56.218Z,35
2018-11-13T08:05:37.305Z,35
2018-11-13T08:06:17.680Z,30
2018-11-13T08:06:58.124Z,20
2018-11-13T08:07:38.638Z,20
2018-11-13T08:08:18.956Z,20
2018-11-13T08:08:59.404Z,20
2018-11-13T08:09:39.803Z,25
2018-11-13T08:10:20.258Z,25
2018-11-13T08:11:00.669Z,20
2018-11-13T08:11:41.080Z,15
2018-11-13T08:12:21.786Z,20
2018-11-13T08:13:02.623Z,15
2018-11-13T08:13:43.777Z,15
2018-11-13T08:14:24.345Z,15
2018-11-13T08:15:04.884Z,20
2018-11-13T08:15:45.436Z,20
2018-11-13T08:16:26.028Z,20
2018-11-13T08:17:06.505Z,20
2018-11-13T08:17:47.061Z,20
2018-11-13T08:18:27.674Z,20
2018-11-13T08:19:08.082Z,20
2018-11-13T08:19:49.250Z,20
2018-11-13T08:20:30.180Z,20
2018-11-13T08:21:11.045Z,20
2018-11-13T08:21:51.464Z,20
2018-11-13T08:22:31.926Z,20
2018-11-13T08:23:15.296Z,20
2018-11-13T08:23:56.302Z,20
2018-11-13T08:41:52.099Z,20
2018-11-13T08:52:12.315Z,40
2018-11-13T08:52:54.078Z,45
2018-11-13T08:53:37.181Z,45
2018-11-13T08:54:18.407Z,45
2018-11-13T08:55:01.820Z,45
2018-11-13T08:55:43.989Z,45
2018-11-13T08:56:25.800Z,45
2018-11-13T08:57:08.153Z,45
2018-11-13T08:57:49.075Z,45
2018-11-13T08:58:30.059Z,45
2018-11-13T08:59:11.037Z,45
2018-11-13T08:59:51.995Z,45
2018-11-13T09:00:32.483Z,45
2018-11-13T09:01:13.570Z,45
2018-11-13T09:01:54.535Z,45
2018-11-13T09:02:36.779Z,45
2018-11-13T09:03:16.840Z,45
2018-11-13T09:03:57.826Z,45
2018-11-13T09:04:39.190Z,45
2018-11-13T09:05:20.054Z,45
2018-11-13T09:06:01.727Z,45
2018-11-13T09:06:43.082Z,45
2018-11-13T09:07:27.207Z,45
2018-11-13T09:08:09.748Z,45
2018-11-13T09:08:51.076Z,45
2018-11-13T09:09:31.711Z,45
2018-11-13T09:10:13.284Z,45
2018-11-13T09:10:54.596Z,45
2018-11-13T09:11:35.949Z,45
2018-11-13T09:12:16.842Z,45
2018-11-13T09:12:58.685Z,45
2018-11-13T09:13:39.882Z,50
2018-11-13T09:14:21.828Z,50
2018-11-13T09:15:02.882Z,50
2018-11-13T09:15:45.601Z,50
2018-11-13T09:16:27.088Z,50
2018-11-13T09:17:08.137Z,50
2018-11-13T09:17:48.789Z,50
2018-11-13T09:18:29.717Z,50
2018-11-13T09:19:11.065Z,50
2018-11-13T09:19:53.114Z,50
2018-11-13T09:20:34.228Z,50
2018-11-13T09:21:15.433Z,50
2018-11-13T09:21:57.115Z,50
2018-11-13T09:22:37.508Z,50
2018-11-13T09:23:18.340Z,50
2018-11-13T09:23:58.538Z,50
2018-11-13T09:24:40.690Z,50
2018-11-13T09:25:22.301Z,50
2018-11-13T09:26:04.929Z,50
2018-11-13T09:26:45.727Z,50
2018-11-13T09:27:26.748Z,50
2018-11-13T09:28:07.651Z,50
2018-11-13T09:28:48.434Z,50
2018-11-13T09:29:29.121Z,50
2018-11-13T09:30:10.629Z,50
2018-11-13T09:30:51.194Z,50
2018-11-13T09:31:31.488Z,40
2018-11-13T09:32:13.193Z,50
2018-11-13T09:32:53.999Z,50
2018-11-13T09:33:35.095Z,50
2018-11-13T09:34:15.399Z,50
2018-11-13T09:34:55.966Z,50
2018-11-13T09:35:38.074Z,50
2018-11-13T09:36:19.176Z,50
2018-11-13T09:37:00.060Z,50
2018-11-13T09:37:41.715Z,50
2018-11-13T09:38:21.311Z,50
2018-11-13T09:39:02.357Z,50
2018-11-13T09:39:44.081Z,50
2018-11-13T09:40:25.740Z,50
2018-11-13T09:41:06.837Z,50
2018-11-13T09:41:47.674Z,50
2018-11-13T09:42:27.744Z,50
2018-11-13T09:43:08.803Z,50
2018-11-13T09:43:50.589Z,50
2018-11-13T09:44:31.641Z,50
2018-11-13T09:45:12.596Z,50
2018-11-13T09:45:54.420Z,50
2018-11-13T09:46:35.600Z,50
2018-11-13T09:47:15.450Z,45
2018-11-13T09:47:56.438Z,50
2018-11-13T09:48:37.373Z,50
2018-11-13T09:49:18.324Z,50
2018-11-13T09:50:00.146Z,50
2018-11-13T09:50:41.424Z,50
2018-11-13T09:51:21.789Z,50
2018-11-13T09:52:06.132Z,50
2018-11-13T09:52:49.109Z,50
2018-11-13T09:53:29.865Z,50
2018-11-13T09:54:11.634Z,50
2018-11-13T09:54:51.874Z,50
2018-11-13T09:55:35.126Z,50
2018-11-13T09:56:16.153Z,50
2018-11-13T09:56:56.848Z,50
2018-11-13T09:57:37.249Z,50
2018-11-13T09:58:21.732Z,50
2018-11-13T10:02:40.756Z,35
2018-11-13T10:03:22.448Z,50
2018-11-13T10:04:03.043Z,55
2018-11-13T10:04:43.717Z,55
2018-11-13T10:05:24.729Z,55
2018-11-13T10:06:05.848Z,60
2018-11-13T10:06:49.069Z,60
2018-11-13T10:07:31.061Z,45
2018-11-13T10:08:11.796Z,40
2018-11-13T10:08:53.277Z,40
2018-11-13T10:09:34.283Z,35
2018-11-13T10:10:14.992Z,35
2018-11-13T10:10:55.698Z,50
2018-11-13T10:11:37.632Z,30
2018-11-13T10:12:18.064Z,35
2018-11-13T10:12:58.925Z,25
2018-11-13T10:13:39.337Z,25
2018-11-13T10:14:20.101Z,20
2018-11-13T10:15:01.827Z,20
2018-11-13T10:15:42.601Z,20
2018-11-13T10:16:23.689Z,20
2018-11-13T10:17:04.060Z,20
2018-11-13T10:17:45.095Z,20
2018-11-13T10:18:28.676Z,20
2018-11-13T10:19:10.694Z,20
2018-11-13T10:19:50.662Z,25
2018-11-13T10:20:31.536Z,20
2018-11-13T10:21:13.215Z,25
2018-11-13T10:21:54.497Z,20
2018-11-13T10:22:38.408Z,20
2018-11-13T10:23:19.075Z,20
2018-11-13T10:24:01.618Z,15
2018-11-13T10:24:42.175Z,15
2018-11-13T10:25:25.556Z,20
2018-11-13T10:26:06.241Z,20
2018-11-13T10:26:47.124Z,25
2018-11-13T10:27:27.819Z,40
2018-11-13T10:28:09.075Z,45
2018-11-13T10:28:50.156Z,45
2018-11-13T11:10:51.836Z,45
2018-11-13T11:11:32.568Z,45
2018-11-13T11:12:13.697Z,45
2018-11-13T11:12:55.976Z,40
2018-11-13T11:13:38.177Z,45
2018-11-13T11:14:19.506Z,45
2018-11-13T11:15:02.218Z,45
2018-11-13T11:15:42.793Z,45
2018-11-13T11:16:23.445Z,45
2018-11-13T11:17:03.868Z,50
2018-11-13T11:17:44.733Z,45
2018-11-13T11:18:25.333Z,45
2018-11-13T11:19:05.906Z,45
2018-11-13T11:19:46.270Z,30
2018-11-13T11:20:26.767Z,45
2018-11-13T11:21:07.380Z,45
2018-11-13T11:21:48.734Z,35
2018-11-13T11:22:32.327Z,45
2018-11-13T11:23:14.063Z,45
2018-11-13T11:23:56.299Z,30
2018-11-13T11:24:37.669Z,45
2018-11-13T11:25:18.671Z,50
2018-11-13T11:26:00.329Z,45
2018-11-13T11:26:41.475Z,55
2018-11-13T11:27:21.578Z,45
2018-11-13T11:28:02.116Z,45
2018-11-13T11:28:42.518Z,45
2018-11-13T11:29:23.986Z,45
2018-11-13T11:30:04.972Z,45
2018-11-13T11:30:45.252Z,45
2018-11-13T11:31:25.996Z,45
2018-11-13T11:32:07.332Z,45
2018-11-13T11:32:48.292Z,45
2018-11-13T11:33:29.028Z,45
2018-11-13T11:34:09.494Z,45
2018-11-13T11:34:50.236Z,45
2018-11-13T11:35:30.798Z,45
2018-11-13T11:36:11.059Z,45
2018-11-13T11:36:51.911Z,45
2018-11-13T11:37:32.470Z,45
2018-11-13T11:38:13.311Z,45
2018-11-13T11:38:53.977Z,45
2018-11-13T11:39:34.548Z,45
2018-11-13T11:40:14.998Z,45
2018-11-13T11:40:55.537Z,45
2018-11-13T11:41:36.044Z,45
2018-11-13T11:42:16.978Z,45
2018-11-13T11:42:57.669Z,50
2018-11-13T11:43:38.162Z,50
2018-11-13T11:44:18.601Z,50
2018-11-13T11:44:58.985Z,45
2018-11-13T11:45:40.185Z,45
2018-11-13T11:46:20.744Z,45
2018-11-13T11:47:01.210Z,45
2018-11-13T11:47:41.698Z,45
2018-11-13T11:48:22.437Z,45
2018-11-13T11:49:06.473Z,45
2018-11-13T11:49:46.960Z,45
2018-11-13T11:50:27.485Z,45
2018-11-13T11:51:08.091Z,45
2018-11-13T11:51:49.560Z,45
2018-11-13T11:52:30.301Z,45
2018-11-13T11:53:10.868Z,45
2018-11-13T11:53:51.530Z,45
2018-11-13T11:54:32.421Z,45
2018-11-13T11:55:13.169Z,45
2018-11-13T11:55:54.772Z,45
2018-11-13T11:56:38.414Z,45
2018-11-13T11:57:19.467Z,45
2018-11-13T11:57:59.982Z,45
2018-11-13T11:58:40.319Z,45
2018-11-13T11:59:20.757Z,40
2018-11-13T12:00:01.275Z,35
2018-11-13T12:00:41.811Z,40
2018-11-13T12:01:23.190Z,45
2018-11-13T12:02:03.821Z,45
2018-11-13T12:02:44.484Z,45
2018-11-13T12:03:25.186Z,45
2018-11-13T12:04:05.746Z,45
2018-11-13T12:04:46.158Z,45
2018-11-13T12:05:26.701Z,45
2018-11-13T12:06:07.587Z,45
2018-11-13T12:06:48.160Z,45
2018-11-13T12:07:28.968Z,45
2018-11-13T12:08:09.477Z,45
2018-11-13T12:08:50.024Z,45
2018-11-13T12:09:30.392Z,45
2018-11-13T12:10:10.762Z,45
2018-11-13T12:10:51.311Z,45
2018-11-13T12:11:32.004Z,45
2018-11-13T12:12:13.017Z,45
2018-11-13T12:12:53.395Z,45
2018-11-13T12:13:33.921Z,45
2018-11-13T12:14:16.295Z,45
2018-11-13T12:14:57.203Z,45
2018-11-13T12:15:37.929Z,45
2018-11-13T12:16:18.909Z,45
2018-11-13T12:16:59.493Z,45
2018-11-13T12:17:41.473Z,45
2018-11-13T12:18:25.173Z,45
2018-11-13T12:19:06.166Z,45
2018-11-13T12:19:48.205Z,45
2018-11-13T12:20:29.591Z,50
2018-11-13T12:21:10.073Z,45
2018-11-13T12:21:52.188Z,35
2018-11-13T12:22:32.684Z,35
2018-11-13T12:23:13.708Z,30
2018-11-13T12:23:55.289Z,35
2018-11-13T12:24:35.880Z,35
2018-11-13T12:25:16.690Z,45
2018-11-13T12:25:58.315Z,45
2018-11-13T12:26:38.427Z,45
2018-11-13T12:27:20.172Z,45
2018-11-13T12:28:00.692Z,40
2018-11-13T12:28:41.641Z,40
2018-11-13T12:29:21.345Z,40
2018-11-13T12:31:40.068Z,40
2018-11-13T12:32:21.068Z,40
2018-11-13T12:33:02.325Z,40
2018-11-13T12:33:43.586Z,40
2018-11-13T12:34:23.590Z,40
2018-11-13T12:35:04.317Z,40
2018-11-13T12:35:44.911Z,40
2018-11-13T12:36:25.785Z,40
2018-11-13T12:37:06.594Z,45
2018-11-13T12:37:47.299Z,45
2018-11-13T12:38:29.602Z,45
2018-11-13T12:39:11.286Z,45
2018-11-13T12:39:52.290Z,40
2018-11-13T12:40:32.737Z,40
2018-11-13T12:41:13.142Z,45
2018-11-13T12:41:53.704Z,35
2018-11-13T12:42:34.280Z,45
2018-11-13T12:43:14.762Z,45
2018-11-13T12:43:55.303Z,45
2018-11-13T12:44:35.745Z,45
2018-11-13T12:45:16.498Z,45
2018-11-13T12:45:56.910Z,45
2018-11-13T12:46:38.111Z,45
2018-11-13T12:47:18.771Z,45
2018-11-13T12:47:59.141Z,45
2018-11-13T12:48:39.636Z,40
2018-11-13T12:49:20.250Z,30
2018-11-13T12:50:01.054Z,35
2018-11-13T12:50:41.443Z,25
2018-11-13T12:51:22.546Z,25
2018-11-13T12:52:04.138Z,25
2018-11-13T12:52:44.346Z,25
2018-11-13T12:53:25.375Z,25
2018-11-13T12:54:05.868Z,25
2018-11-13T12:54:46.785Z,30
2018-11-13T12:55:29.072Z,30
2018-11-13T12:56:10.192Z,40
2018-11-13T12:56:50.807Z,40
2018-11-13T12:57:31.543Z,40
2018-11-13T12:58:12.017Z,40
2018-11-13T12:58:52.689Z,40
2018-11-13T12:59:33.404Z,45
2018-11-13T13:00:15.352Z,45
2018-11-13T13:00:55.484Z,45
2018-11-13T13:01:36.928Z,35
2018-11-13T13:02:17.855Z,30
2018-11-13T13:02:59.121Z,30
2018-11-13T13:03:39.052Z,40
2018-11-13T13:04:19.672Z,40
2018-11-13T13:05:01.144Z,35
2018-11-13T13:05:41.365Z,35
2018-11-13T13:06:22.687Z,35
2018-11-13T13:07:03.196Z,30
2018-11-13T13:07:43.431Z,30
2018-11-13T13:08:24.456Z,30
2018-11-13T13:09:05.376Z,35
2018-11-13T13:09:45.975Z,35
2018-11-13T13:10:29.382Z,35
2018-11-13T13:11:10.207Z,35
2018-11-13T13:11:51.762Z,35
2018-11-13T13:12:32.290Z,35
2018-11-13T13:13:14.077Z,35
2018-11-13T13:13:55.745Z,35
2018-11-13T13:14:37.447Z,35
2018-11-13T13:15:17.936Z,35
2018-11-13T13:15:58.927Z,35